createdAt,value
2019-05-07T00:00:46.102Z,0.00
2019-05-07T00:01:46.122Z,0.00
2019-05-07T00:02:46.147Z,0.00
2019-05-07T00:03:46.172Z,0.00
2019-05-07T00:04:46.194Z,0.00
2019-05-07T00:05:46.221Z,0.00
2019-05-07T00:06:46.243Z,0.00
2019-05-07T00:07:46.269Z,0.00
2019-05-07T00:08:46.292Z,0.00
2019-05-07T00:09:46.319Z,0.00
2019-05-07T00:10:46.349Z,0.00
2019-05-07T00:11:46.364Z,0.00
2019-05-07T00:12:46.390Z,0.00
2019-05-07T00:13:46.415Z,0.00
2019-05-07T00:14:58.146Z,0.00
2019-05-07T00:15:46.459Z,0.00
2019-05-07T00:16:46.491Z,0.00
2019-05-07T00:17:46.509Z,0.00
2019-05-07T00:18:46.536Z,0.00
2019-05-07T00:19:46.559Z,0.00
2019-05-07T00:20:46.581Z,0.00
2019-05-07T00:21:46.606Z,0.00
2019-05-07T00:22:46.630Z,0.00
2019-05-07T00:23:46.654Z,0.00
2019-05-07T00:24:46.682Z,0.00
2019-05-07T00:25:46.704Z,0.00
2019-05-07T00:26:46.734Z,0.00
2019-05-07T00:27:46.754Z,0.00
2019-05-07T00:28:46.776Z,0.00
2019-05-07T00:29:46.805Z,0.00
2019-05-07T00:30:46.828Z,0.00
2019-05-07T00:31:46.854Z,0.00
2019-05-07T00:32:46.877Z,0.00
2019-05-07T00:33:46.899Z,0.00
2019-05-07T00:34:46.921Z,0.00
2019-05-07T00:35:46.946Z,0.00
2019-05-07T00:36:46.972Z,0.00
2019-05-07T00:37:46.996Z,0.00
2019-05-07T00:38:47.019Z,0.00
2019-05-07T00:39:47.047Z,0.00
2019-05-07T00:40:47.068Z,0.00
2019-05-07T00:41:47.092Z,0.00
2019-05-07T00:42:47.117Z,0.00
2019-05-07T00:43:47.140Z,0.00
2019-05-07T00:44:47.171Z,0.00
2019-05-07T00:45:47.188Z,0.00
2019-05-07T00:46:47.215Z,0.00
2019-05-07T00:47:47.242Z,0.00
2019-05-07T00:48:47.267Z,0.00
2019-05-07T00:49:47.282Z,0.00
2019-05-07T00:50:47.308Z,0.00
2019-05-07T00:51:47.338Z,0.00
2019-05-07T00:52:47.359Z,0.00
2019-05-07T00:53:47.382Z,0.00
2019-05-07T00:54:47.405Z,0.00
2019-05-07T00:55:47.430Z,0.00
2019-05-07T00:56:47.451Z,0.00
2019-05-07T00:57:47.477Z,0.00
2019-05-07T00:58:47.503Z,0.00
2019-05-07T00:59:47.525Z,0.00
2019-05-07T01:00:47.548Z,0.00
2019-05-07T01:01:47.579Z,0.00
2019-05-07T01:02:47.597Z,0.00
2019-05-07T01:03:47.623Z,0.00
2019-05-07T01:04:47.646Z,0.00
2019-05-07T01:05:47.672Z,0.00
2019-05-07T01:06:47.695Z,0.00
2019-05-07T01:07:47.718Z,0.00
2019-05-07T01:08:47.742Z,0.00
2019-05-07T01:09:47.768Z,0.00
2019-05-07T01:10:47.793Z,0.00
2019-05-07T01:11:47.816Z,0.00
2019-05-07T01:12:47.841Z,0.00
2019-05-07T01:13:47.873Z,0.00
2019-05-07T01:14:47.896Z,0.00
2019-05-07T01:15:47.916Z,0.00
2019-05-07T01:16:47.941Z,0.00
2019-05-07T01:17:47.961Z,0.00
2019-05-07T01:18:47.985Z,0.00
2019-05-07T01:19:48.007Z,0.00
2019-05-07T01:20:48.034Z,0.00
2019-05-07T01:21:48.058Z,0.00
2019-05-07T01:22:48.079Z,0.00
2019-05-07T01:23:48.107Z,0.00
2019-05-07T01:24:48.130Z,0.00
2019-05-07T01:25:48.155Z,0.00
2019-05-07T01:26:48.185Z,0.00
2019-05-07T01:27:48.202Z,0.00
2019-05-07T01:28:48.233Z,0.00
2019-05-07T01:29:48.249Z,0.00
2019-05-07T01:30:48.275Z,0.00
2019-05-07T01:31:48.297Z,0.00
2019-05-07T01:32:48.323Z,0.00
2019-05-07T01:33:48.347Z,0.00
2019-05-07T01:34:48.375Z,0.00
2019-05-07T01:35:48.393Z,0.00
2019-05-07T01:36:48.416Z,0.00
2019-05-07T01:37:48.444Z,0.00
2019-05-07T01:38:48.468Z,0.00
2019-05-07T01:39:48.492Z,0.00
2019-05-07T01:40:48.523Z,0.00
2019-05-07T01:41:48.542Z,0.00
2019-05-07T01:42:48.562Z,0.00
2019-05-07T01:43:48.595Z,0.00
2019-05-07T01:44:48.618Z,0.00
2019-05-07T01:45:49.947Z,0.00
2019-05-07T01:46:48.664Z,0.00
2019-05-07T01:47:48.684Z,0.00
2019-05-07T01:48:48.706Z,0.00
2019-05-07T01:49:48.733Z,0.00
2019-05-07T01:50:48.755Z,0.00
2019-05-07T01:51:48.784Z,0.00
2019-05-07T01:52:48.804Z,0.00
2019-05-07T01:53:48.827Z,0.00
2019-05-07T01:54:48.851Z,0.00
2019-05-07T01:55:48.882Z,0.00
2019-05-07T01:56:48.899Z,0.00
2019-05-07T01:57:48.930Z,0.00
2019-05-07T01:58:48.950Z,0.00
2019-05-07T01:59:48.970Z,0.00
2019-05-07T02:00:48.995Z,0.00
2019-05-07T02:01:49.027Z,0.00
2019-05-07T02:02:49.046Z,0.00
2019-05-07T02:03:49.070Z,0.00
2019-05-07T02:04:49.093Z,0.00
2019-05-07T02:05:49.117Z,0.00
2019-05-07T02:06:49.141Z,0.00
2019-05-07T02:07:49.166Z,0.00
2019-05-07T02:08:49.189Z,0.00
2019-05-07T02:09:49.215Z,0.00
2019-05-07T02:10:49.236Z,0.00
2019-05-07T02:11:49.260Z,0.00
2019-05-07T02:12:49.290Z,0.00
2019-05-07T02:13:49.315Z,0.00
2019-05-07T02:14:49.331Z,0.00
2019-05-07T02:15:58.514Z,0.00
2019-05-07T02:16:49.380Z,0.00
2019-05-07T02:17:49.402Z,0.00
2019-05-07T02:18:49.427Z,0.00
2019-05-07T02:19:49.449Z,0.00
2019-05-07T02:20:49.475Z,0.00
2019-05-07T02:21:49.501Z,0.00
2019-05-07T02:22:49.525Z,0.00
2019-05-07T02:23:49.556Z,0.00
2019-05-07T02:24:49.570Z,0.00
2019-05-07T02:25:49.602Z,0.00
2019-05-07T02:26:49.618Z,0.00
2019-05-07T02:27:49.647Z,0.00
2019-05-07T02:28:51.805Z,0.00
2019-05-07T02:29:49.690Z,0.00
2019-05-07T02:30:49.715Z,0.00
2019-05-07T02:31:49.738Z,0.00
2019-05-07T02:32:49.777Z,0.00
2019-05-07T02:33:49.786Z,0.00
2019-05-07T02:34:49.813Z,0.00
2019-05-07T02:35:49.833Z,0.00
2019-05-07T02:36:49.865Z,0.00
2019-05-07T02:37:55.587Z,0.00
2019-05-07T02:38:52.799Z,0.00
2019-05-07T02:39:49.932Z,0.00
2019-05-07T02:40:53.263Z,0.00
2019-05-07T02:41:49.983Z,0.00
2019-05-07T02:42:53.567Z,0.00
2019-05-07T02:43:50.036Z,0.00
2019-05-07T02:44:52.924Z,0.00
2019-05-07T02:45:50.075Z,0.00
2019-05-07T02:46:52.561Z,0.00
2019-05-07T02:47:52.486Z,0.00
2019-05-07T02:48:53.419Z,0.00
2019-05-07T02:49:53.378Z,0.00
2019-05-07T02:51:37.758Z,0.00
2019-05-07T02:52:37.779Z,0.00
2019-05-07T02:53:37.813Z,0.00
2019-05-07T02:54:37.824Z,0.00
2019-05-07T02:55:37.851Z,0.00
2019-05-07T02:56:37.877Z,0.00
2019-05-07T02:57:37.892Z,0.00
2019-05-07T02:58:37.921Z,0.00
2019-05-07T02:59:37.941Z,0.00
2019-05-07T03:00:37.966Z,0.00
2019-05-07T03:01:37.988Z,0.00
2019-05-07T03:02:38.013Z,0.00
2019-05-07T03:03:38.044Z,0.00
2019-05-07T03:04:38.079Z,0.00
2019-05-07T03:05:38.093Z,0.00
2019-05-07T03:06:38.124Z,0.00
2019-05-07T03:07:38.133Z,0.00
2019-05-07T03:08:38.156Z,0.00
2019-05-07T03:09:38.183Z,0.00
2019-05-07T03:10:38.209Z,0.00
2019-05-07T03:11:38.233Z,0.00
2019-05-07T03:12:38.271Z,0.00
2019-05-07T03:13:38.278Z,0.00
2019-05-07T03:14:38.310Z,4.00
2019-05-07T03:15:38.323Z,4.00
2019-05-07T03:16:44.033Z,4.00
2019-05-07T03:17:38.370Z,0.00
2019-05-07T03:18:38.407Z,4.00
2019-05-07T03:19:38.427Z,4.00
2019-05-07T03:20:38.450Z,4.00
2019-05-07T03:21:38.473Z,4.00
2019-05-07T03:22:38.494Z,4.00
2019-05-07T03:23:38.518Z,4.00
2019-05-07T03:24:38.541Z,8.00
2019-05-07T03:25:38.564Z,8.00
2019-05-07T03:26:38.602Z,8.00
2019-05-07T03:27:38.623Z,12.00
2019-05-07T03:28:38.637Z,12.00
2019-05-07T03:29:38.657Z,16.00
2019-05-07T03:30:38.707Z,16.00
2019-05-07T03:31:38.707Z,20.00
2019-05-07T03:32:40.187Z,24.00
2019-05-07T03:33:38.754Z,28.00
2019-05-07T03:34:38.779Z,32.00
2019-05-07T03:35:38.803Z,36.00
2019-05-07T03:36:38.843Z,44.00
2019-05-07T03:37:38.873Z,48.00
2019-05-07T03:38:38.874Z,56.00
2019-05-07T03:39:38.901Z,60.00
2019-05-07T03:40:38.923Z,68.00
2019-05-07T03:41:38.962Z,80.00
2019-05-07T03:42:38.980Z,88.00
2019-05-07T03:43:38.995Z,100.00
2019-05-07T03:44:39.026Z,108.00
2019-05-07T03:45:39.044Z,124.00
2019-05-07T03:46:53.040Z,136.00
2019-05-07T03:47:39.096Z,148.00
2019-05-07T03:48:39.113Z,164.00
2019-05-07T03:49:39.139Z,184.00
2019-05-07T03:50:39.163Z,200.00
2019-05-07T03:51:39.189Z,212.00
2019-05-07T03:52:39.211Z,224.00
2019-05-07T03:53:39.244Z,244.00
2019-05-07T03:54:39.256Z,252.00
2019-05-07T03:55:39.288Z,268.00
2019-05-07T03:56:39.313Z,276.00
2019-05-07T03:57:39.345Z,288.00
2019-05-07T03:58:39.383Z,296.00
2019-05-07T03:59:39.382Z,312.00
2019-05-07T04:00:39.401Z,324.00
2019-05-07T04:01:39.425Z,336.00
2019-05-07T04:02:39.448Z,352.00
2019-05-07T04:03:39.480Z,372.00
2019-05-07T04:04:39.500Z,392.00
2019-05-07T04:05:39.522Z,412.00
2019-05-07T04:06:43.165Z,436.00
2019-05-07T04:07:39.580Z,460.00
2019-05-07T04:08:42.835Z,492.00
2019-05-07T04:09:39.616Z,516.00
2019-05-07T04:10:39.640Z,544.00
2019-05-07T04:11:39.663Z,568.00
2019-05-07T04:12:39.686Z,584.00
2019-05-07T04:13:39.718Z,612.00
2019-05-07T04:14:39.734Z,636.00
2019-05-07T04:15:39.770Z,664.00
2019-05-07T04:16:39.783Z,692.00
2019-05-07T04:17:42.834Z,716.00
2019-05-07T04:18:39.881Z,752.00
2019-05-07T04:19:39.855Z,780.00
2019-05-07T04:20:43.156Z,808.00
2019-05-07T04:21:39.907Z,836.00
2019-05-07T04:22:42.809Z,860.00
2019-05-07T04:23:43.277Z,880.00
2019-05-07T04:24:42.615Z,900.00
2019-05-07T04:25:40.000Z,928.00
2019-05-07T04:26:42.760Z,964.00
2019-05-07T04:27:44.117Z,1008.00
2019-05-07T04:28:40.070Z,1044.00
2019-05-07T04:29:42.617Z,1072.00
2019-05-07T04:30:40.119Z,1096.00
2019-05-07T04:31:42.989Z,1132.00
2019-05-07T04:32:43.198Z,1172.00
2019-05-07T04:33:40.198Z,1204.00
2019-05-07T04:34:40.213Z,1232.00
2019-05-07T04:35:43.050Z,1252.00
2019-05-07T04:36:43.275Z,1276.00
2019-05-07T04:37:42.783Z,1296.00
2019-05-07T04:38:40.319Z,1328.00
2019-05-07T04:39:42.882Z,1356.00
2019-05-07T04:40:43.149Z,1380.00
2019-05-07T04:41:43.204Z,1388.00
2019-05-07T04:42:42.809Z,1376.00
2019-05-07T04:43:43.204Z,1352.00
2019-05-07T04:44:43.564Z,1332.00
2019-05-07T04:45:43.139Z,1316.00
2019-05-07T04:46:44.685Z,1320.00
2019-05-07T04:47:46.297Z,1336.00
2019-05-07T04:48:43.550Z,1344.00
2019-05-07T04:49:43.528Z,1352.00
2019-05-07T04:50:44.296Z,1348.00
2019-05-07T04:51:43.234Z,1320.00
2019-05-07T04:52:43.617Z,1352.00
2019-05-07T04:53:42.896Z,1380.00
2019-05-07T04:54:43.525Z,1388.00
2019-05-07T04:55:43.034Z,1400.00
2019-05-07T04:56:43.635Z,1420.00
2019-05-07T04:57:43.508Z,1432.00
2019-05-07T04:58:43.223Z,1428.00
2019-05-07T04:59:42.909Z,1432.00
2019-05-07T05:00:43.111Z,1444.00
2019-05-07T05:01:43.401Z,1452.00
2019-05-07T05:02:43.319Z,1456.00
2019-05-07T05:03:43.468Z,1464.00
2019-05-07T05:04:43.694Z,1480.00
2019-05-07T05:05:43.519Z,1488.00
2019-05-07T05:06:42.438Z,1484.00
2019-05-07T05:07:43.113Z,1420.00
2019-05-07T05:08:43.483Z,1424.00
2019-05-07T05:09:42.671Z,1456.00
2019-05-07T05:10:43.278Z,1524.00
2019-05-07T05:11:43.675Z,1580.00
2019-05-07T05:12:42.857Z,1632.00
2019-05-07T05:13:44.318Z,1656.00
2019-05-07T05:14:43.544Z,1672.00
2019-05-07T05:15:43.137Z,1688.00
2019-05-07T05:16:42.547Z,1716.00
2019-05-07T05:17:50.525Z,1776.00
2019-05-07T05:18:42.030Z,1828.00
2019-05-07T05:19:43.736Z,1840.00
2019-05-07T05:20:42.153Z,1808.00
2019-05-07T05:21:41.949Z,1812.00
2019-05-07T05:22:42.497Z,1940.00
2019-05-07T05:23:41.976Z,1972.00
2019-05-07T05:24:42.455Z,1944.00
2019-05-07T05:25:43.139Z,1968.00
2019-05-07T05:26:41.959Z,2092.00
2019-05-07T05:27:43.011Z,2144.00
2019-05-07T05:28:42.105Z,2160.00
2019-05-07T05:29:42.956Z,2172.00
2019-05-07T05:30:42.477Z,2168.00
2019-05-07T05:31:42.145Z,2172.00
2019-05-07T05:32:42.482Z,2236.00
2019-05-07T05:33:42.108Z,2296.00
2019-05-07T05:34:42.551Z,2368.00
2019-05-07T05:35:43.048Z,2440.00
2019-05-07T05:36:42.538Z,2452.00
2019-05-07T05:37:42.923Z,2624.00
2019-05-07T05:38:42.378Z,2748.00
2019-05-07T05:39:42.717Z,2812.00
2019-05-07T05:40:42.644Z,2940.00
2019-05-07T05:41:42.249Z,3108.00
2019-05-07T05:42:42.871Z,3236.00
2019-05-07T05:43:42.560Z,3356.00
2019-05-07T05:44:41.963Z,3412.00
2019-05-07T05:45:42.641Z,3440.00
2019-05-07T05:46:42.813Z,3436.00
2019-05-07T05:47:44.872Z,3428.00
2019-05-07T05:48:42.626Z,3412.00
2019-05-07T05:49:42.868Z,3400.00
2019-05-07T05:50:42.317Z,3432.00
2019-05-07T05:51:43.005Z,3504.00
2019-05-07T05:52:42.551Z,3600.00
2019-05-07T05:53:43.353Z,3660.00
2019-05-07T05:54:42.717Z,3720.00
2019-05-07T05:55:42.831Z,3772.00
2019-05-07T05:56:42.739Z,3812.00
2019-05-07T05:57:42.490Z,3808.00
2019-05-07T05:58:43.103Z,3860.00
2019-05-07T05:59:50.206Z,4072.00
2019-05-07T06:00:42.397Z,4292.00
2019-05-07T06:02:08.001Z,4436.00
2019-05-07T06:02:44.067Z,4560.00
2019-05-07T06:03:43.012Z,4652.00
2019-05-07T06:04:42.407Z,4748.00
2019-05-07T06:05:42.430Z,4776.00
2019-05-07T06:06:42.484Z,4728.00
2019-05-07T06:07:42.814Z,4808.00
2019-05-07T06:08:43.422Z,4916.00
2019-05-07T06:09:42.531Z,4856.00
2019-05-07T06:10:42.576Z,4884.00
2019-05-07T06:11:43.004Z,5072.00
2019-05-07T06:12:42.925Z,5172.00
2019-05-07T06:13:42.627Z,5276.00
2019-05-07T06:14:42.649Z,5664.00
2019-05-07T06:15:42.672Z,5792.00
2019-05-07T06:16:42.699Z,5868.00
2019-05-07T06:17:42.723Z,5860.00
2019-05-07T06:18:42.753Z,5948.00
2019-05-07T06:19:42.777Z,6044.00
2019-05-07T06:20:43.018Z,6156.00
2019-05-07T06:21:42.821Z,6328.00
2019-05-07T06:22:42.848Z,6648.00
2019-05-07T06:23:42.873Z,6932.00
2019-05-07T06:24:42.897Z,7040.00
2019-05-07T06:25:43.055Z,7760.00
2019-05-07T06:26:42.945Z,9796.00
2019-05-07T06:27:42.983Z,11024.00
2019-05-07T06:28:43.010Z,8604.00
2019-05-07T06:29:43.022Z,8448.00
2019-05-07T06:30:43.045Z,8564.00
2019-05-07T06:31:43.079Z,8368.00
2019-05-07T06:32:43.183Z,7996.00
2019-05-07T06:33:43.125Z,7704.00
2019-05-07T06:34:44.715Z,7544.00
2019-05-07T06:35:43.172Z,7460.00
2019-05-07T06:36:43.198Z,7472.00
2019-05-07T06:37:43.223Z,7544.00
2019-05-07T06:38:43.248Z,7608.00
2019-05-07T06:39:43.274Z,7596.00
2019-05-07T06:40:43.301Z,7480.00
2019-05-07T06:41:43.321Z,7348.00
2019-05-07T06:42:43.353Z,7076.00
2019-05-07T06:43:43.372Z,6884.00
2019-05-07T06:44:43.397Z,6752.00
2019-05-07T06:45:43.424Z,6600.00
2019-05-07T06:46:43.448Z,6584.00
2019-05-07T06:47:43.484Z,6632.00
2019-05-07T06:48:46.083Z,6692.00
2019-05-07T06:49:43.523Z,6744.00
2019-05-07T06:50:43.547Z,6784.00
2019-05-07T06:51:43.582Z,6824.00
2019-05-07T06:52:43.622Z,6864.00
2019-05-07T06:53:43.625Z,6944.00
2019-05-07T06:54:43.653Z,7108.00
2019-05-07T06:55:43.676Z,7320.00
2019-05-07T06:56:43.700Z,7540.00
2019-05-07T06:57:43.732Z,7712.00
2019-05-07T06:58:43.756Z,7748.00
2019-05-07T06:59:43.775Z,7820.00
2019-05-07T07:00:43.803Z,7900.00
2019-05-07T07:01:43.838Z,8104.00
2019-05-07T07:02:43.853Z,8416.00
2019-05-07T07:03:43.876Z,8776.00
2019-05-07T07:04:43.902Z,9376.00
2019-05-07T07:05:43.927Z,9972.00
2019-05-07T07:06:43.956Z,10892.00
2019-05-07T07:07:43.980Z,15624.00
2019-05-07T07:08:44.010Z,26912.00
2019-05-07T07:09:44.031Z,15360.00
2019-05-07T07:10:44.061Z,13236.00
2019-05-07T07:11:44.113Z,12384.00
2019-05-07T07:12:44.108Z,12412.00
2019-05-07T07:13:44.130Z,13068.00
2019-05-07T07:14:44.159Z,12996.00
2019-05-07T07:15:44.182Z,13192.00
2019-05-07T07:17:26.759Z,12400.00
2019-05-07T07:18:26.785Z,12764.00
2019-05-07T07:19:26.815Z,12528.00
2019-05-07T07:20:26.836Z,12756.00
2019-05-07T07:21:26.862Z,13572.00
2019-05-07T07:22:26.892Z,13772.00
2019-05-07T07:23:26.910Z,14096.00
2019-05-07T07:24:26.937Z,14248.00
2019-05-07T07:25:26.976Z,15180.00
2019-05-07T07:26:26.989Z,13840.00
2019-05-07T07:27:27.014Z,13784.00
2019-05-07T07:28:27.039Z,13976.00
2019-05-07T07:29:27.074Z,14232.00
2019-05-07T07:30:27.094Z,13992.00
2019-05-07T07:31:27.120Z,15088.00
2019-05-07T07:32:27.151Z,14784.00
2019-05-07T07:33:27.169Z,15408.00
2019-05-07T07:34:27.200Z,16244.00
2019-05-07T07:35:27.225Z,16264.00
2019-05-07T07:36:27.254Z,15888.00
2019-05-07T07:37:27.279Z,15552.00
2019-05-07T07:38:27.300Z,14868.00
2019-05-07T07:39:27.327Z,14332.00
2019-05-07T07:40:27.351Z,14168.00
2019-05-07T07:41:27.377Z,14728.00
2019-05-07T07:42:27.404Z,16308.00
2019-05-07T07:43:27.429Z,24256.00
2019-05-07T07:44:27.463Z,20224.00
2019-05-07T07:45:27.490Z,18432.00
2019-05-07T07:46:27.514Z,17344.00
2019-05-07T07:47:27.541Z,19808.00
2019-05-07T07:48:28.373Z,17248.00
2019-05-07T07:49:27.589Z,16524.00
2019-05-07T07:50:27.617Z,17344.00
2019-05-07T07:51:38.912Z,17376.00
2019-05-07T07:52:27.666Z,15908.00
2019-05-07T07:53:27.694Z,18304.00
2019-05-07T07:54:27.723Z,19168.00
2019-05-07T07:55:27.745Z,16152.00
2019-05-07T07:56:27.773Z,15772.00
2019-05-07T07:57:27.831Z,16108.00
2019-05-07T07:58:27.824Z,16992.00
2019-05-07T07:59:27.852Z,18528.00
2019-05-07T08:00:29.978Z,19008.00
2019-05-07T08:01:27.904Z,19328.00
2019-05-07T08:02:27.939Z,20160.00
2019-05-07T08:03:27.959Z,20384.00
2019-05-07T08:04:27.985Z,20960.00
2019-05-07T08:05:28.011Z,21696.00
2019-05-07T08:06:28.036Z,22560.00
2019-05-07T08:07:28.072Z,23616.00
2019-05-07T08:08:28.095Z,24448.00
2019-05-07T08:09:28.118Z,25376.00
2019-05-07T08:10:28.144Z,27264.00
2019-05-07T08:11:28.172Z,29344.00
2019-05-07T08:12:28.195Z,30272.00
2019-05-07T08:13:28.258Z,28320.00
2019-05-07T08:14:28.248Z,26080.00
2019-05-07T08:15:28.279Z,26336.00
2019-05-07T08:16:28.304Z,25888.00
2019-05-07T08:17:28.329Z,25824.00
2019-05-07T08:18:28.445Z,28512.00
2019-05-07T08:19:28.398Z,31552.00
2019-05-07T08:20:28.409Z,32608.00
2019-05-07T08:21:28.439Z,32416.00
2019-05-07T08:22:28.464Z,30944.00
2019-05-07T08:23:28.491Z,28928.00
2019-05-07T08:24:28.520Z,27104.00
2019-05-07T08:25:28.547Z,28416.00
2019-05-07T08:26:28.573Z,36480.00
2019-05-07T08:27:28.603Z,47200.00
2019-05-07T08:28:28.626Z,48064.00
2019-05-07T08:29:28.663Z,41216.00
2019-05-07T08:30:28.724Z,39008.00
2019-05-07T08:31:28.712Z,42176.00
2019-05-07T08:32:28.745Z,35616.00
2019-05-07T08:33:28.786Z,39744.00
2019-05-07T08:34:28.797Z,45440.00
2019-05-07T08:35:28.821Z,37184.00
2019-05-07T08:36:28.848Z,28000.00
2019-05-07T08:37:28.876Z,27584.00
2019-05-07T08:38:30.036Z,27392.00
2019-05-07T08:39:28.939Z,29600.00
2019-05-07T08:40:28.975Z,39008.00
2019-05-07T08:41:28.990Z,41504.00
2019-05-07T08:42:29.017Z,45152.00
2019-05-07T08:43:29.046Z,34016.00
2019-05-07T08:44:29.079Z,36864.00
2019-05-07T08:45:29.125Z,38144.00
2019-05-07T08:46:29.236Z,36000.00
2019-05-07T08:47:29.164Z,33920.00
2019-05-07T08:48:29.194Z,32416.00
2019-05-07T08:49:36.933Z,31712.00
2019-05-07T08:50:29.253Z,30784.00
2019-05-07T08:51:29.275Z,23936.00
2019-05-07T08:52:29.300Z,23424.00
2019-05-07T08:53:29.340Z,24448.00
2019-05-07T08:54:29.358Z,32992.00
2019-05-07T08:55:29.386Z,42976.00
2019-05-07T08:56:31.766Z,37632.00
2019-05-07T08:57:31.702Z,30400.00
2019-05-07T08:58:31.599Z,32064.00
2019-05-07T08:59:31.742Z,23360.00
2019-05-07T09:00:29.529Z,21920.00
2019-05-07T09:01:29.559Z,22272.00
2019-05-07T09:02:29.588Z,22592.00
2019-05-07T09:03:29.615Z,22400.00
2019-05-07T09:04:29.644Z,22528.00
2019-05-07T09:05:29.671Z,22784.00
2019-05-07T09:06:29.700Z,23424.00
2019-05-07T09:07:29.729Z,23808.00
2019-05-07T09:08:31.676Z,21568.00
2019-05-07T09:09:32.093Z,19936.00
2019-05-07T09:10:29.822Z,15204.00
2019-05-07T09:11:31.628Z,13116.00
2019-05-07T09:12:31.802Z,12140.00
2019-05-07T09:13:29.899Z,11512.00
2019-05-07T09:14:31.556Z,11092.00
2019-05-07T09:15:32.012Z,10752.00
2019-05-07T09:16:31.924Z,10400.00
2019-05-07T09:17:31.855Z,10108.00
2019-05-07T09:18:32.111Z,9908.00
2019-05-07T09:19:32.128Z,9660.00
2019-05-07T09:20:32.097Z,9284.00
2019-05-07T09:21:32.164Z,8940.00
2019-05-07T09:22:32.150Z,8748.00
2019-05-07T09:23:31.922Z,8740.00
2019-05-07T09:24:30.209Z,8832.00
2019-05-07T09:25:32.411Z,9136.00
2019-05-07T09:26:32.237Z,9520.00
2019-05-07T09:27:32.552Z,9824.00
2019-05-07T09:28:32.557Z,10112.00
2019-05-07T09:29:32.235Z,10924.00
2019-05-07T09:30:32.481Z,12088.00
2019-05-07T09:31:32.248Z,13668.00
2019-05-07T09:32:32.497Z,15844.00
2019-05-07T09:33:32.025Z,19200.00
2019-05-07T09:34:32.571Z,36288.00
2019-05-07T09:35:32.065Z,62400.00
2019-05-07T09:36:32.263Z,67264.00
2019-05-07T09:37:32.538Z,35904.00
2019-05-07T09:38:32.598Z,22208.00
2019-05-07T09:39:32.461Z,21344.00
2019-05-07T09:40:32.002Z,21952.00
2019-05-07T09:41:32.589Z,23904.00
2019-05-07T09:42:32.969Z,25280.00
2019-05-07T09:43:32.431Z,23328.00
2019-05-07T09:44:32.530Z,25984.00
2019-05-07T09:45:32.684Z,22560.00
2019-05-07T09:46:32.514Z,29248.00
2019-05-07T09:47:32.536Z,24032.00
2019-05-07T09:48:30.869Z,18016.00
2019-05-07T09:49:32.681Z,15668.00
2019-05-07T09:50:32.527Z,13672.00
2019-05-07T09:51:32.230Z,12412.00
2019-05-07T09:52:32.158Z,11712.00
2019-05-07T09:53:32.149Z,11468.00
2019-05-07T09:54:32.291Z,11628.00
2019-05-07T09:55:32.628Z,12132.00
2019-05-07T09:56:31.982Z,12848.00
2019-05-07T09:57:34.389Z,13756.00
2019-05-07T09:58:36.683Z,18368.00
2019-05-07T09:59:32.507Z,22560.00
2019-05-07T10:00:31.957Z,20416.00
2019-05-07T10:01:31.938Z,33760.00
2019-05-07T10:02:31.981Z,91584.00
2019-05-07T10:03:32.444Z,32480.00
2019-05-07T10:04:32.689Z,22336.00
2019-05-07T10:05:32.137Z,17632.00
2019-05-07T10:06:32.053Z,16824.00
2019-05-07T10:07:32.429Z,18336.00
2019-05-07T10:08:31.853Z,18624.00
2019-05-07T10:09:32.847Z,57280.00
2019-05-07T10:10:32.927Z,27328.00
2019-05-07T10:11:32.911Z,25760.00
2019-05-07T10:12:32.970Z,20128.00
2019-05-07T10:13:32.974Z,16172.00
2019-05-07T10:14:33.054Z,15632.00
2019-05-07T10:15:33.196Z,17952.00
2019-05-07T10:16:31.652Z,16928.00
2019-05-07T10:17:32.753Z,14020.00
2019-05-07T10:18:32.041Z,14172.00
2019-05-07T10:19:32.502Z,15684.00
2019-05-07T10:20:32.763Z,17600.00
2019-05-07T10:21:31.789Z,19520.00
2019-05-07T10:22:32.208Z,20032.00
2019-05-07T10:23:31.847Z,17312.00
2019-05-07T10:24:31.875Z,17216.00
2019-05-07T10:25:32.793Z,16580.00
2019-05-07T10:26:32.276Z,16500.00
2019-05-07T10:27:32.449Z,16764.00
2019-05-07T10:28:32.217Z,17760.00
2019-05-07T10:29:32.385Z,22368.00
2019-05-07T10:30:32.228Z,20544.00
2019-05-07T10:31:32.156Z,26400.00
2019-05-07T10:32:32.339Z,75840.00
2019-05-07T10:33:32.154Z,42272.00
2019-05-07T10:34:32.153Z,92192.00
2019-05-07T10:35:33.725Z,39264.00
2019-05-07T10:36:32.217Z,26784.00
2019-05-07T10:37:32.241Z,24224.00
2019-05-07T10:38:32.272Z,23776.00
2019-05-07T10:39:32.634Z,24768.00
2019-05-07T10:40:32.812Z,23744.00
2019-05-07T10:41:32.376Z,24864.00
2019-05-07T10:42:32.531Z,25760.00
2019-05-07T10:43:32.849Z,26848.00
2019-05-07T10:44:32.443Z,28960.00
2019-05-07T10:45:32.465Z,28512.00
2019-05-07T10:46:32.511Z,29600.00
2019-05-07T10:47:32.523Z,28352.00
2019-05-07T10:48:32.553Z,25536.00
2019-05-07T10:49:32.585Z,25056.00
2019-05-07T10:50:38.770Z,23040.00
2019-05-07T10:51:32.640Z,21952.00
2019-05-07T10:52:32.668Z,21312.00
2019-05-07T10:53:32.703Z,20960.00
2019-05-07T10:54:32.731Z,20832.00
2019-05-07T10:55:33.028Z,20448.00
2019-05-07T10:56:32.827Z,20000.00
2019-05-07T10:57:32.952Z,19168.00
2019-05-07T10:58:32.846Z,18368.00
2019-05-07T10:59:32.883Z,17952.00
2019-05-07T11:00:33.232Z,16736.00
2019-05-07T11:01:32.971Z,15696.00
2019-05-07T11:02:32.955Z,15076.00
2019-05-07T11:03:32.986Z,14544.00
2019-05-07T11:04:42.187Z,13852.00
2019-05-07T11:05:33.041Z,13068.00
2019-05-07T11:06:33.075Z,12208.00
2019-05-07T11:07:33.096Z,11328.00
2019-05-07T11:08:33.154Z,10600.00
2019-05-07T11:09:33.152Z,9960.00
2019-05-07T11:10:33.180Z,9364.00
2019-05-07T11:11:33.216Z,8912.00
2019-05-07T11:12:33.237Z,8560.00
2019-05-07T11:13:33.271Z,8252.00
2019-05-07T11:14:33.295Z,8104.00
2019-05-07T11:15:33.321Z,8116.00
2019-05-07T11:16:33.348Z,7852.00
2019-05-07T11:17:33.391Z,7724.00
2019-05-07T11:18:33.403Z,7616.00
2019-05-07T11:19:33.435Z,7628.00
2019-05-07T11:20:45.645Z,7752.00
2019-05-07T11:21:33.702Z,7928.00
2019-05-07T11:22:33.517Z,8128.00
2019-05-07T11:23:33.544Z,8384.00
2019-05-07T11:24:33.570Z,8688.00
2019-05-07T11:25:33.599Z,9132.00
2019-05-07T11:26:33.628Z,9668.00
2019-05-07T11:27:33.659Z,10348.00
2019-05-07T11:28:33.682Z,11876.00
2019-05-07T11:29:36.458Z,11132.00
2019-05-07T11:30:33.736Z,11144.00
2019-05-07T11:31:33.765Z,11268.00
2019-05-07T11:32:33.793Z,11516.00
2019-05-07T11:33:33.820Z,11776.00
2019-05-07T11:34:33.851Z,11992.00
2019-05-07T11:35:33.876Z,12228.00
2019-05-07T11:36:34.414Z,12656.00
2019-05-07T11:37:33.929Z,11988.00
2019-05-07T11:38:33.956Z,11608.00
2019-05-07T11:39:33.982Z,11216.00
2019-05-07T11:40:34.883Z,10796.00
2019-05-07T11:41:34.037Z,10220.00
2019-05-07T11:42:34.064Z,9652.00
2019-05-07T11:43:34.091Z,9124.00
2019-05-07T11:44:34.119Z,8656.00
2019-05-07T11:45:34.145Z,8276.00
2019-05-07T11:46:34.175Z,7980.00
2019-05-07T11:47:34.200Z,7800.00
2019-05-07T11:48:36.295Z,7760.00
2019-05-07T11:49:34.256Z,7844.00
2019-05-07T11:50:34.290Z,7988.00
2019-05-07T11:51:34.311Z,8312.00
2019-05-07T11:52:35.908Z,8832.00
2019-05-07T11:53:34.366Z,9516.00
2019-05-07T11:54:34.393Z,10136.00
2019-05-07T11:55:34.418Z,10816.00
2019-05-07T11:56:34.444Z,11448.00
2019-05-07T11:57:34.475Z,12000.00
2019-05-07T11:58:34.505Z,12696.00
2019-05-07T11:59:34.527Z,13008.00
2019-05-07T12:00:34.556Z,14104.00
2019-05-07T12:01:43.496Z,15928.00
2019-05-07T12:02:34.612Z,17760.00
2019-05-07T12:03:34.638Z,19712.00
2019-05-07T12:04:34.661Z,22176.00
2019-05-07T12:05:34.691Z,22848.00
2019-05-07T12:06:34.716Z,20032.00
2019-05-07T12:07:34.747Z,18336.00
2019-05-07T12:08:42.817Z,17392.00
2019-05-07T12:09:34.801Z,16876.00
2019-05-07T12:10:34.827Z,16412.00
2019-05-07T12:11:34.855Z,16156.00
2019-05-07T12:12:34.883Z,15464.00
2019-05-07T12:13:34.909Z,15116.00
2019-05-07T12:14:35.167Z,14780.00
2019-05-07T12:15:34.969Z,14524.00
2019-05-07T12:16:34.992Z,14332.00
2019-05-07T12:17:35.024Z,14268.00
2019-05-07T12:18:35.050Z,14332.00
2019-05-07T12:19:35.082Z,14696.00
2019-05-07T12:20:35.105Z,15028.00